This is the latest recevied weather packets stored in our database for station/object DL2DHM-13. If no packets are shown the sender has not sent any weather packets the latest 10 day(s).
| Time | Temp. | Humidity | Pressure | Rain* | Wind** | Luminosity | Snow |
|---|---|---|---|---|---|---|---|
| 1777232148 | 8.33° C | 69% | 1023.1 hPa | 0 mm | - | 0 W/m² | - |
| 1777230343 | 9.44° C | 66% | 1023 hPa | 0 mm | - | 0 W/m² | - |
| 1777226740 | 12.78° C | 48% | 1022.6 hPa | 0 mm | - | 25 W/m² | - |
| 1777225241 | 13.33° C | 49% | 1022.6 hPa | 0 mm | - | 35 W/m² | - |
| 1777224639 | 13.89° C | 49% | 1022.6 hPa | 0 mm | - | 49 W/m² | - |
| 1777224338 | 13.89° C | 49% | 1022.6 hPa | 0 mm | - | 62 W/m² | - |
| 1777224038 | 13.89° C | 47% | 1022.6 hPa | 0 mm | - | 76 W/m² | - |
| 1777220432 | 15° C | 48% | 1022.9 hPa | 0 mm | - | 311 W/m² | - |
| 1777220150 | 15° C | 49% | 1022.9 hPa | 0 mm | - | 323 W/m² | - |
| 1777219831 | 15° C | 48% | 1022.9 hPa | 0 mm | - | 336 W/m² | - |
| 1777216227 | 15° C | 43% | 1023.1 hPa | 0 mm | - | 332 W/m² | - |
| 1777215926 | 15° C | 42% | 1023.1 hPa | 0 mm | - | 390 W/m² | - |
| 1777215026 | 15° C | 41% | 1023.2 hPa | 0 mm | - | 401 W/m² | - |
| 1777214725 | 14.44° C | 42% | 1023.2 hPa | 0 mm | - | 418 W/m² | - |
| 1777214425 | 14.44° C | 41% | 1023.3 hPa | 0 mm | - | 468 W/m² | - |
| 1777209619 | 13.89° C | 41% | 1023.7 hPa | 0 mm | - | 577 W/m² | - |
| 1777206614 | 13.33° C | 48% | 1024 hPa | 0 mm | - | 759 W/m² | - |
| 1777205111 | 13.33° C | 45% | 1024.2 hPa | 0 mm | - | 780 W/m² | - |
| 1777203009 | 12.78° C | 47% | 1024.5 hPa | 0 mm | - | 782 W/m² | - |
| 1777201803 | 12.78° C | 50% | 1024.6 hPa | 0 mm | - | 788 W/m² | - |
| 1777199155 | 11.11° C | 61% | 1024.8 hPa | 0 mm | - | 740 W/m² | - |
| 1777197048 | 10.56° C | 62% | 1024.8 hPa | 0 mm | - | 710 W/m² | - |
| 1777193146 | 9.44° C | 67% | 1024.9 hPa | 0 mm | - | 645 W/m² | - |
| 1777191029 | 8.33° C | 74% | 1024.9 hPa | 0 mm | - | 432 W/m² | - |
| 1777190126 | 7.78° C | 76% | 1024.9 hPa | 0 mm | - | 434 W/m² | - |
* Rain latest hour (hover to see other rain measurements)
** Current wind speed in m/s (hover to see current wind gust speed)